^^
Station Historical Data
Daily Summary for January 25, 2018 Units:  Both    English   Metric
« Previous Day
Next Day »
Daily Weekly Monthly Yearly Custom
  High: Low: Average:
Temperature: TemperatureC °F /  -17.8 °C 2.1 °F /  -16.6 °C 3.5 °F /  -15.8 °C
Dew Point: DewpointC °F /  -17.8 °C 1.1 °F /  -17.2 °C 2.6 °F /  -16.3 °C
Humidity: Humidity% 92% 93%
Wind Speed: WindSpeedKMHmph /  0km/h - 3.7mph /  6km/h
Wind Gust: WindSpeedGustKMHmph /  0km/h - -
Wind- - SSW
Pressure: PressurehPa in /  0 hPa 993.5 in /  33639.9 hPa -
Precipitation: 9.9 in /  251.46 mm    
Historical Graphs
 
 
Tabular Data for January 25, 2018
Time Temperature Dew Point Pressure Wind Wind Speed Wind Gust Humidity Rainfall Rate (Hourly) solar Conditions
TemperatureC °F /  -17.8 °C DewpointC °F /  -17.8 °C PressurehPain /  0hPa Calm     Humidity% HourlyPrecipMMin /  0mm SoftwareType W/m2 Conditions
00:00 2.5 °F /  -16.4 °C 1.6 °F /  -16.9 °C 998.5in /  33809.2hPa South 0.3mph /  0.5km/h 9.3mph /  15km/h 94% 0.0in /  0mm WeatherDisplay:10.37 W/m2 FEW
00:05 2.5 °F /  -16.4 °C 1.6 °F /  -16.9 °C 998.2in /  33799.1hPa SE 6.0mph /  9.7km/h 9.3mph /  15km/h 94% 0.0in /  0mm WeatherDisplay:10.37 W/m2 RA
00:10 2.5 °F /  -16.4 °C 1.6 °F /  -16.9 °C 998.2in /  33799.1hPa North 3.9mph /  6.3km/h 7.4mph /  11.9km/h 94% 0.3in /  7.62mm WeatherDisplay:10.37 W/m2 RA
00:15 2.6 °F /  -16.3 °C 1.7 °F /  -16.8 °C 998.2in /  33799.1hPa SSW 4.3mph /  6.9km/h 18.5mph /  29.8km/h 94% 0.3in /  7.62mm WeatherDisplay:10.37 W/m2 RA
00:20 2.6 °F /  -16.3 °C 1.7 °F /  -16.8 °C 998.2in /  33799.1hPa SSW 2.7mph /  4.3km/h 2.7mph /  4.3km/h 94% 0.3in /  7.62mm WeatherDisplay:10.37 W/m2 FEW
00:25 2.7 °F /  -16.3 °C 1.8 °F /  -16.8 °C 997.9in /  33788.9hPa ENE 1.4mph /  2.3km/h 11.1mph /  17.9km/h 94% 0.5in /  12.7mm WeatherDisplay:10.37 W/m2 RA
00:30 2.7 °F /  -16.3 °C 1.8 °F /  -16.8 °C 997.9in /  33788.9hPa SSE 5.3mph /  8.5km/h 11.1mph /  17.9km/h 94% 0.5in /  12.7mm WeatherDisplay:10.37 W/m2 RA
00:35 2.6 °F /  -16.3 °C 1.7 °F /  -16.8 °C 997.9in /  33788.9hPa NNE 3.2mph /  5.1km/h 14.8mph /  23.8km/h 94% 0.5in /  12.7mm WeatherDisplay:10.37 W/m2 FEW
00:40 2.7 °F /  -16.3 °C 1.8 °F /  -16.8 °C 997.9in /  33788.9hPa SE 1.1mph /  1.8km/h 20.4mph /  32.8km/h 94% 0.5in /  12.7mm WeatherDisplay:10.37 W/m2 FEW
00:45 2.8 °F /  -16.2 °C 1.9 °F /  -16.7 °C 997.9in /  33788.9hPa South 9.7mph /  15.6km/h 14.5mph /  23.3km/h 94% 0.5in /  12.7mm WeatherDisplay:10.37 W/m2 RA
00:50 2.9 °F /  -16.2 °C 2.1 °F /  -16.6 °C 997.5in /  33775.4hPa SE 4.7mph /  7.6km/h 16.7mph /  26.9km/h 94% 0.5in /  12.7mm WeatherDisplay:10.37 W/m2 RA
00:55 3.0 °F /  -16.1 °C 2.1 °F /  -16.6 °C 997.5in /  33775.4hPa South 8.8mph /  14.2km/h 8.8mph /  14.2km/h 94% 0.5in /  12.7mm WeatherDisplay:10.37 W/m2 FEW
01:00 3.1 °F /  -16.1 °C 2.2 °F /  -16.6 °C 997.5in /  33775.4hPa South 7.1mph /  11.4km/h 7.4mph /  11.9km/h 94% 0.8in /  20.32mm WeatherDisplay:10.37 W/m2 RA
01:05 3.1 °F /  -16.1 °C 2.4 °F /  -16.4 °C 997.2in /  33765.2hPa WSW 7.6mph /  12.2km/h 12.9mph /  20.8km/h 95% 0.8in /  20.32mm WeatherDisplay:10.37 W/m2 RA
01:10 3.2 °F /  -16 °C 2.5 °F /  -16.4 °C 997.2in /  33765.2hPa SSW 8.4mph /  13.5km/h 20.9mph /  33.6km/h 95% 0.5in /  12.7mm WeatherDisplay:10.37 W/m2 FEW
01:15 3.3 °F /  -15.9 °C 2.4 °F /  -16.4 °C 997.2in /  33765.2hPa South 9.2mph /  14.8km/h 29.6mph /  47.6km/h 94% 0.5in /  12.7mm WeatherDisplay:10.37 W/m2 FEW
01:20 3.3 °F /  -15.9 °C 2.4 °F /  -16.4 °C 996.8in /  33751.6hPa SW 6.4mph /  10.3km/h 22.2mph /  35.7km/h 94% 0.8in /  20.32mm WeatherDisplay:10.37 W/m2 RA
01:25 3.3 °F /  -15.9 °C 2.4 °F /  -16.4 °C 996.8in /  33751.6hPa SW 10.8mph /  17.4km/h 29.6mph /  47.6km/h 94% 0.5in /  12.7mm WeatherDisplay:10.37 W/m2 RA
01:30 3.3 °F /  -15.9 °C 2.4 °F /  -16.4 °C 996.8in /  33751.6hPa WSW 11.9mph /  19.2km/h 11.9mph /  19.2km/h 94% 0.8in /  20.32mm WeatherDisplay:10.37 W/m2 RA
01:35 3.3 °F /  -15.9 °C 2.4 °F /  -16.4 °C 996.8in /  33751.6hPa South 6.0mph /  9.7km/h 20.9mph /  33.6km/h 94% 0.8in /  20.32mm WeatherDisplay:10.37 W/m2 RA
01:41 3.4 °F /  -15.9 °C 2.7 °F /  -16.3 °C 996.8in /  33751.6hPa East 7.2mph /  11.6km/h 11.3mph /  18.2km/h 95% 0.8in /  20.32mm WeatherDisplay:10.37 W/m2 FEW
01:46 3.3 °F /  -15.9 °C 2.4 °F /  -16.4 °C 996.8in /  33751.6hPa South 13.8mph /  22.2km/h 42.6mph /  68.6km/h 94% 0.8in /  20.32mm WeatherDisplay:10.37 W/m2 RA
01:51 3.4 °F /  -15.9 °C 2.5 °F /  -16.4 °C 996.5in /  33741.5hPa SSE 7.9mph /  12.7km/h 24.1mph /  38.8km/h 94% 0.8in /  20.32mm WeatherDisplay:10.37 W/m2 RA
01:56 3.4 °F /  -15.9 °C 2.5 °F /  -16.4 °C 996.5in /  33741.5hPa SE 6.8mph /  10.9km/h 14.8mph /  23.8km/h 94% 0.8in /  20.32mm WeatherDisplay:10.37 W/m2 FEW
02:01 3.3 °F /  -15.9 °C 2.4 °F /  -16.4 °C 996.5in /  33741.5hPa SSW 3.2mph /  5.1km/h 16.7mph /  26.9km/h 94% 0.5in /  12.7mm WeatherDisplay:10.37 W/m2 FEW
02:06 3.3 °F /  -15.9 °C 2.4 °F /  -16.4 °C 996.2in /  33731.3hPa NE 6.8mph /  10.9km/h 14.8mph /  23.8km/h 94% 0.8in /  20.32mm WeatherDisplay:10.37 W/m2 RA
02:11 3.3 °F /  -15.9 °C 2.4 °F /  -16.4 °C 996.2in /  33731.3hPa South 7.2mph /  11.6km/h 13.0mph /  20.9km/h 94% 0.8in /  20.32mm WeatherDisplay:10.37 W/m2 RA
02:16 3.4 °F /  -15.9 °C 2.5 °F /  -16.4 °C 996.2in /  33731.3hPa North 9.2mph /  14.8km/h 18.5mph /  29.8km/h 94% 0.5in /  12.7mm WeatherDisplay:10.37 W/m2 FEW
02:21 3.4 °F /  -15.9 °C 2.7 °F /  -16.3 °C 996.2in /  33731.3hPa SSE 6.9mph /  11.1km/h 14.8mph /  23.8km/h 95% 0.5in /  12.7mm WeatherDisplay:10.37 W/m2 FEW
02:26 3.5 °F /  -15.8 °C 2.8 °F /  -16.2 °C 996.2in /  33731.3hPa South 6.1mph /  9.8km/h 14.5mph /  23.3km/h 95% 0.5in /  12.7mm WeatherDisplay:10.37 W/m2 FEW
02:31 3.5 °F /  -15.8 °C 2.8 °F /  -16.2 °C 995.8in /  33717.8hPa SE 7.9mph /  12.7km/h 22.5mph /  36.2km/h 95% 0.5in /  12.7mm WeatherDisplay:10.37 W/m2 FEW
02:36 3.5 °F /  -15.8 °C 2.8 °F /  -16.2 °C 995.8in /  33717.8hPa SSW 7.6mph /  12.2km/h 18.5mph /  29.8km/h 95% 0.5in /  12.7mm WeatherDisplay:10.37 W/m2 FEW
02:41 3.6 °F /  -15.8 °C 2.7 °F /  -16.3 °C 995.8in /  33717.8hPa SW 3.2mph /  5.1km/h 22.2mph /  35.7km/h 94% 0.5in /  12.7mm WeatherDisplay:10.37 W/m2 RA
02:46 3.6 °F /  -15.8 °C 2.9 °F /  -16.2 °C 996.2in /  33731.3hPa WSW 3.7mph /  6km/h 13.0mph /  20.9km/h 95% 0.5in /  12.7mm WeatherDisplay:10.37 W/m2 RA
02:51 3.7 °F /  -15.7 °C 2.8 °F /  -16.2 °C 996.2in /  33731.3hPa SSW 9.0mph /  14.5km/h 14.8mph /  23.8km/h 94% 0.5in /  12.7mm WeatherDisplay:10.37 W/m2 FEW
02:56 3.7 °F /  -15.7 °C 2.8 °F /  -16.2 °C 995.8in /  33717.8hPa WSW 4.7mph /  7.6km/h 20.4mph /  32.8km/h 94% 0.5in /  12.7mm WeatherDisplay:10.37 W/m2 FEW
03:01 3.7 °F /  -15.7 °C 2.8 °F /  -16.2 °C 995.8in /  33717.8hPa WNW 6.6mph /  10.6km/h 13.0mph /  20.9km/h 94% 0.5in /  12.7mm WeatherDisplay:10.37 W/m2 FEW
03:06 3.7 °F /  -15.7 °C 2.8 °F /  -16.2 °C 995.5in /  33707.6hPa SSE 9.0mph /  14.5km/h 18.5mph /  29.8km/h 94% 0.5in /  12.7mm WeatherDisplay:10.37 W/m2 RA
03:11 3.7 °F /  -15.7 °C 2.8 °F /  -16.2 °C 995.8in /  33717.8hPa SSE 6.4mph /  10.3km/h 24.1mph /  38.8km/h 94% 0.5in /  12.7mm WeatherDisplay:10.37 W/m2 RA
03:16 3.7 °F /  -15.7 °C 2.8 °F /  -16.2 °C 995.5in /  33707.6hPa SSE 7.9mph /  12.7km/h 14.8mph /  23.8km/h 94% 0.5in /  12.7mm WeatherDisplay:10.37 W/m2 FEW
03:21 3.7 °F /  -15.7 °C 2.8 °F /  -16.2 °C 995.5in /  33707.6hPa ESE 1.6mph /  2.6km/h 9.3mph /  15km/h 94% 0.5in /  12.7mm WeatherDisplay:10.37 W/m2 RA
03:26 3.7 °F /  -15.7 °C 2.8 °F /  -16.2 °C 995.1in /  33694.1hPa SSE 7.9mph /  12.7km/h 16.1mph /  25.9km/h 94% 0.5in /  12.7mm WeatherDisplay:10.37 W/m2 RA
03:31 3.7 °F /  -15.7 °C 2.8 °F /  -16.2 °C 995.1in /  33694.1hPa South 13.8mph /  22.2km/h 31.5mph /  50.7km/h 94% 0.5in /  12.7mm WeatherDisplay:10.37 W/m2 FEW
03:36 3.8 °F /  -15.7 °C 2.9 °F /  -16.2 °C 995.1in /  33694.1hPa NNE 3.5mph /  5.6km/h 9.3mph /  15km/h 94% 0.5in /  12.7mm WeatherDisplay:10.37 W/m2 FEW
03:41 3.7 °F /  -15.7 °C 2.8 °F /  -16.2 °C 995.1in /  33694.1hPa SE 3.4mph /  5.5km/h 5.6mph /  9km/h 94% 0.5in /  12.7mm WeatherDisplay:10.37 W/m2 FEW
03:46 3.6 °F /  -15.8 °C 2.7 °F /  -16.3 °C 995.1in /  33694.1hPa SE 7.1mph /  11.4km/h 19.3mph /  31.1km/h 94% 0.5in /  12.7mm WeatherDisplay:10.37 W/m2 RA
03:51 3.7 °F /  -15.7 °C 2.8 °F /  -16.2 °C 995.1in /  33694.1hPa SSE 2.3mph /  3.7km/h 16.7mph /  26.9km/h 94% 0.5in /  12.7mm WeatherDisplay:10.37 W/m2 RA
03:56 3.7 °F /  -15.7 °C 2.8 °F /  -16.2 °C 994.8in /  33683.9hPa WNW 7.6mph /  12.2km/h 20.4mph /  32.8km/h 94% 1.0in /  25.4mm WeatherDisplay:10.37 W/m2 RA
04:01 3.6 °F /  -15.8 °C 2.7 °F /  -16.3 °C 994.8in /  33683.9hPa NE 6.0mph /  9.7km/h 14.8mph /  23.8km/h 94% 1.3in /  33.02mm WeatherDisplay:10.37 W/m2 RA
04:06 3.7 °F /  -15.7 °C 2.8 °F /  -16.2 °C 994.8in /  33683.9hPa South 3.2mph /  5.1km/h 6.4mph /  10.3km/h 94% 1.3in /  33.02mm WeatherDisplay:10.37 W/m2 RA
04:11 3.7 °F /  -15.7 °C 2.8 °F /  -16.2 °C 994.8in /  33683.9hPa NNW 4.2mph /  6.8km/h 14.8mph /  23.8km/h 94% 1.3in /  33.02mm WeatherDisplay:10.37 W/m2 RA
04:16 3.7 °F /  -15.7 °C 2.8 °F /  -16.2 °C 994.8in /  33683.9hPa SE 6.4mph /  10.3km/h 16.7mph /  26.9km/h 94% 1.5in /  38.1mm WeatherDisplay:10.37 W/m2 RA
04:21 3.6 °F /  -15.8 °C 2.7 °F /  -16.3 °C 994.5in /  33673.8hPa SSW 6.8mph /  10.9km/h 16.7mph /  26.9km/h 94% 1.3in /  33.02mm WeatherDisplay:10.37 W/m2 RA
04:26 3.6 °F /  -15.8 °C 2.7 °F /  -16.3 °C 994.5in /  33673.8hPa North 9.0mph /  14.5km/h 27.8mph /  44.7km/h 94% 1.3in /  33.02mm WeatherDisplay:10.37 W/m2 FEW
04:31 3.6 °F /  -15.8 °C 2.7 °F /  -16.3 °C 994.5in /  33673.8hPa NNW 2.4mph /  3.9km/h 14.8mph /  23.8km/h 94% 1.5in /  38.1mm WeatherDisplay:10.37 W/m2 RA
04:36 3.6 °F /  -15.8 °C 2.7 °F /  -16.3 °C 994.5in /  33673.8hPa South 4.5mph /  7.2km/h 16.7mph /  26.9km/h 94% 1.5in /  38.1mm WeatherDisplay:10.37 W/m2 RA
04:41 3.6 °F /  -15.8 °C 2.7 °F /  -16.3 °C 994.5in /  33673.8hPa WNW 5.8mph /  9.3km/h 7.4mph /  11.9km/h 94% 1.5in /  38.1mm WeatherDisplay:10.37 W/m2 FEW
04:46 3.6 °F /  -15.8 °C 2.7 °F /  -16.3 °C 994.1in /  33660.2hPa SSE 7.4mph /  11.9km/h 11.1mph /  17.9km/h 94% 1.5in /  38.1mm WeatherDisplay:10.37 W/m2 RA
04:51 3.6 °F /  -15.8 °C 2.7 °F /  -16.3 °C 994.1in /  33660.2hPa SW 8.7mph /  14km/h 22.2mph /  35.7km/h 94% 1.5in /  38.1mm WeatherDisplay:10.37 W/m2 RA
04:56 3.6 °F /  -15.8 °C 2.7 °F /  -16.3 °C 994.1in /  33660.2hPa WSW 4.5mph /  7.2km/h 9.3mph /  15km/h 94% 1.3in /  33.02mm WeatherDisplay:10.37 W/m2 RA
05:01 3.6 °F /  -15.8 °C 2.7 °F /  -16.3 °C 994.1in /  33660.2hPa NW 6.1mph /  9.8km/h 16.7mph /  26.9km/h 94% 1.0in /  25.4mm WeatherDisplay:10.37 W/m2 RA
05:06 3.6 °F /  -15.8 °C 2.7 °F /  -16.3 °C 994.1in /  33660.2hPa SSW 9.8mph /  15.8km/h 18.5mph /  29.8km/h 94% 1.3in /  33.02mm WeatherDisplay:10.37 W/m2 RA
05:11 3.6 °F /  -15.8 °C 2.7 °F /  -16.3 °C 994.1in /  33660.2hPa SSW 8.2mph /  13.2km/h 17.7mph /  28.5km/h 94% 1.3in /  33.02mm WeatherDisplay:10.37 W/m2 RA
05:16 3.6 °F /  -15.8 °C 2.7 °F /  -16.3 °C 994.1in /  33660.2hPa SE 8.4mph /  13.5km/h 13.0mph /  20.9km/h 94% 1.3in /  33.02mm WeatherDisplay:10.37 W/m2 RA
05:21 3.7 °F /  -15.7 °C 2.8 °F /  -16.2 °C 994.1in /  33660.2hPa South 7.1mph /  11.4km/h 18.5mph /  29.8km/h 94% 1.5in /  38.1mm WeatherDisplay:10.37 W/m2 RA
05:26 3.7 °F /  -15.7 °C 2.8 °F /  -16.2 °C 994.1in /  33660.2hPa NE 3.9mph /  6.3km/h 11.1mph /  17.9km/h 94% 1.5in /  38.1mm WeatherDisplay:10.37 W/m2 RA
05:31 3.7 °F /  -15.7 °C 2.8 °F /  -16.2 °C 994.1in /  33660.2hPa SE 9.5mph /  15.3km/h 22.2mph /  35.7km/h 94% 1.5in /  38.1mm WeatherDisplay:10.37 W/m2 RA
05:36 3.7 °F /  -15.7 °C 2.8 °F /  -16.2 °C 993.8in /  33650.1hPa NNW 6.1mph /  9.8km/h 11.1mph /  17.9km/h 94% 1.5in /  38.1mm WeatherDisplay:10.37 W/m2 RA
05:41 3.7 °F /  -15.7 °C 2.8 °F /  -16.2 °C 993.8in /  33650.1hPa SW 4.2mph /  6.8km/h 11.1mph /  17.9km/h 94% 1.5in /  38.1mm WeatherDisplay:10.37 W/m2 RA
05:46 3.6 °F /  -15.8 °C 2.7 °F /  -16.3 °C 993.8in /  33650.1hPa NE 5.3mph /  8.5km/h 11.1mph /  17.9km/h 94% 1.5in /  38.1mm WeatherDisplay:10.37 W/m2 RA
05:51 3.6 °F /  -15.8 °C 2.7 °F /  -16.3 °C 993.8in /  33650.1hPa SE 4.5mph /  7.2km/h 9.3mph /  15km/h 94% 1.5in /  38.1mm WeatherDisplay:10.37 W/m2 RA
05:56 3.6 °F /  -15.8 °C 2.7 °F /  -16.3 °C 993.8in /  33650.1hPa WSW 7.6mph /  12.2km/h 33.8mph /  54.4km/h 94% 1.5in /  38.1mm WeatherDisplay:10.37 W/m2 RA
06:01 3.6 °F /  -15.8 °C 2.7 °F /  -16.3 °C 993.5in /  33639.9hPa SSE 8.2mph /  13.2km/h 18.5mph /  29.8km/h 94% 1.8in /  45.72mm WeatherDisplay:10.37 W/m2 RA
06:06 3.6 °F /  -15.8 °C 2.7 °F /  -16.3 °C 993.5in /  33639.9hPa SSE 4.8mph /  7.7km/h 18.5mph /  29.8km/h 94% 1.5in /  38.1mm WeatherDisplay:10.37 W/m2 RA
06:11 3.6 °F /  -15.8 °C 2.7 °F /  -16.3 °C 993.8in /  33650.1hPa ESE 9.0mph /  14.5km/h 13.0mph /  20.9km/h 94% 1.5in /  38.1mm WeatherDisplay:10.37 W/m2 RA
06:16 3.6 °F /  -15.8 °C 2.7 °F /  -16.3 °C 993.5in /  33639.9hPa SE 5.8mph /  9.3km/h 14.8mph /  23.8km/h 94% 1.5in /  38.1mm WeatherDisplay:10.37 W/m2 RA
06:21 3.6 °F /  -15.8 °C 2.7 °F /  -16.3 °C 993.5in /  33639.9hPa NNE 5.6mph /  9km/h 16.7mph /  26.9km/h 94% 1.5in /  38.1mm WeatherDisplay:10.37 W/m2 RA
06:26 3.6 °F /  -15.8 °C 2.7 °F /  -16.3 °C 993.5in /  33639.9hPa SSW 7.2mph /  11.6km/h 19.3mph /  31.1km/h 94% 1.8in /  45.72mm WeatherDisplay:10.37 W/m2 RA
06:31 3.6 °F /  -15.8 °C 2.7 °F /  -16.3 °C 993.5in /  33639.9hPa South 8.0mph /  12.9km/h 16.7mph /  26.9km/h 94% 1.5in /  38.1mm WeatherDisplay:10.37 W/m2 RA
06:36 3.5 °F /  -15.8 °C 2.6 °F /  -16.3 °C 993.5in /  33639.9hPa South 4.8mph /  7.7km/h 14.8mph /  23.8km/h 94% 1.5in /  38.1mm WeatherDisplay:10.37 W/m2 RA
06:41 3.6 °F /  -15.8 °C 2.7 °F /  -16.3 °C 993.5in /  33639.9hPa SE 0.3mph /  0.5km/h 7.4mph /  11.9km/h 94% 1.5in /  38.1mm WeatherDisplay:10.37 W/m2 RA
06:46 3.6 °F /  -15.8 °C 2.7 °F /  -16.3 °C 993.5in /  33639.9hPa East 5.0mph /  8km/h 11.1mph /  17.9km/h 94% 1.5in /  38.1mm WeatherDisplay:10.37 W/m2 RA
06:51 3.5 °F /  -15.8 °C 2.6 °F /  -16.3 °C 993.5in /  33639.9hPa WSW 8.0mph /  12.9km/h 16.7mph /  26.9km/h 94% 1.8in /  45.72mm WeatherDisplay:10.37 W/m2 RA
06:56 3.6 °F /  -15.8 °C 2.7 °F /  -16.3 °C 993.5in /  33639.9hPa SSE 3.7mph /  6km/h 9.3mph /  15km/h 94% 1.8in /  45.72mm WeatherDisplay:10.37 W/m2 RA
07:01 3.6 °F /  -15.8 °C 2.7 °F /  -16.3 °C 993.5in /  33639.9hPa SSE 6.1mph /  9.8km/h 11.1mph /  17.9km/h 94% 1.8in /  45.72mm WeatherDisplay:10.37 W/m2 RA
07:06 3.6 °F /  -15.8 °C 2.7 °F /  -16.3 °C 993.5in /  33639.9hPa WSW 7.1mph /  11.4km/h 22.2mph /  35.7km/h 94% 1.8in /  45.72mm WeatherDisplay:10.37 W/m2 RA
07:11 3.6 °F /  -15.8 °C 2.7 °F /  -16.3 °C 993.5in /  33639.9hPa SE 5.1mph /  8.2km/h 12.9mph /  20.8km/h 94% 1.8in /  45.72mm WeatherDisplay:10.37 W/m2 RA
07:16 3.6 °F /  -15.8 °C 2.7 °F /  -16.3 °C 993.5in /  33639.9hPa ESE 6.8mph /  10.9km/h 20.9mph /  33.6km/h 94% 1.8in /  45.72mm WeatherDisplay:10.37 W/m2 RA
07:21 3.6 °F /  -15.8 °C 2.7 °F /  -16.3 °C 993.5in /  33639.9hPa South 4.5mph /  7.2km/h 11.1mph /  17.9km/h 94% 2.0in /  50.8mm WeatherDisplay:10.37 W/m2 RA
07:26 3.6 °F /  -15.8 °C 2.7 °F /  -16.3 °C 993.5in /  33639.9hPa NE 1.3mph /  2.1km/h 11.1mph /  17.9km/h 94% 1.5in /  38.1mm WeatherDisplay:10.37 W/m2 RA
07:31 3.6 °F /  -15.8 °C 2.7 °F /  -16.3 °C 993.5in /  33639.9hPa North 1.4mph /  2.3km/h 16.7mph /  26.9km/h 94% 1.8in /  45.72mm WeatherDisplay:10.37 W/m2 RA
07:36 3.7 °F /  -15.7 °C 2.8 °F /  -16.2 °C 993.5in /  33639.9hPa SE 1.3mph /  2.1km/h 7.4mph /  11.9km/h 94% 1.8in /  45.72mm WeatherDisplay:10.37 W/m2 RA
07:41 3.7 °F /  -15.7 °C 2.8 °F /  -16.2 °C 993.5in /  33639.9hPa SW 4.0mph /  6.4km/h 7.4mph /  11.9km/h 94% 1.8in /  45.72mm WeatherDisplay:10.37 W/m2 RA
07:46 3.7 °F /  -15.7 °C 2.8 °F /  -16.2 °C 993.5in /  33639.9hPa SE 5.8mph /  9.3km/h 11.1mph /  17.9km/h 94% 1.8in /  45.72mm WeatherDisplay:10.37 W/m2 RA
07:51 3.7 °F /  -15.7 °C 2.8 °F /  -16.2 °C 993.5in /  33639.9hPa SSE 5.1mph /  8.2km/h 5.6mph /  9km/h 94% 1.8in /  45.72mm WeatherDisplay:10.37 W/m2 RA
07:56 3.7 °F /  -15.7 °C 2.8 °F /  -16.2 °C 993.5in /  33639.9hPa SSW 7.9mph /  12.7km/h 20.4mph /  32.8km/h 94% 1.8in /  45.72mm WeatherDisplay:10.37 W/m2 RA
08:01 3.6 °F /  -15.8 °C 2.7 °F /  -16.3 °C 993.5in /  33639.9hPa SSE 6.8mph /  10.9km/h 12.9mph /  20.8km/h 94% 1.8in /  45.72mm WeatherDisplay:10.37 W/m2 RA
08:06 3.6 °F /  -15.8 °C 2.7 °F /  -16.3 °C 993.5in /  33639.9hPa South 5.1mph /  8.2km/h 14.5mph /  23.3km/h 94% 2.0in /  50.8mm WeatherDisplay:10.37 W/m2 RA
08:11 3.7 °F /  -15.7 °C 2.8 °F /  -16.2 °C 993.5in /  33639.9hPa SSW 4.2mph /  6.8km/h 9.7mph /  15.6km/h 94% 1.8in /  45.72mm WeatherDisplay:10.37 W/m2 RA
08:16 3.7 °F /  -15.7 °C 2.8 °F /  -16.2 °C 993.5in /  33639.9hPa SW 0.6mph /  1km/h 6.4mph /  10.3km/h 94% 1.5in /  38.1mm WeatherDisplay:10.37 W/m2 FEW
08:21 3.7 °F /  -15.7 °C 2.8 °F /  -16.2 °C 993.5in /  33639.9hPa SSW 4.8mph /  7.7km/h 11.1mph /  17.9km/h 94% 1.5in /  38.1mm WeatherDisplay:10.37 W/m2 FEW
08:26 3.7 °F /  -15.7 °C 2.8 °F /  -16.2 °C 993.8in /  33650.1hPa WSW 3.9mph /  6.3km/h 9.3mph /  15km/h 94% 1.5in /  38.1mm WeatherDisplay:10.37 W/m2 FEW
08:31 3.7 °F /  -15.7 °C 2.8 °F /  -16.2 °C 993.8in /  33650.1hPa ESE 6.4mph /  10.3km/h 14.8mph /  23.8km/h 94% 1.5in /  38.1mm WeatherDisplay:10.37 W/m2 RA
08:36 3.7 °F /  -15.7 °C 2.8 °F /  -16.2 °C 993.5in /  33639.9hPa NW 1.9mph /  3.1km/h 13.0mph /  20.9km/h 94% 1.3in /  33.02mm WeatherDisplay:10.37 W/m2 RA
08:41 3.7 °F /  -15.7 °C 2.8 °F /  -16.2 °C 993.5in /  33639.9hPa Calm   9.3mph /  15km/h 94% 1.3in /  33.02mm WeatherDisplay:10.37 W/m2 FEW
08:46 3.7 °F /  -15.7 °C 2.8 °F /  -16.2 °C 993.8in /  33650.1hPa SSE 4.3mph /  6.9km/h 11.1mph /  17.9km/h 94% 1.0in /  25.4mm WeatherDisplay:10.37 W/m2 FEW
08:51 3.7 °F /  -15.7 °C 2.8 °F /  -16.2 °C 993.8in /  33650.1hPa SSE 6.9mph /  11.1km/h 13.0mph /  20.9km/h 94% 0.8in /  20.32mm WeatherDisplay:10.37 W/m2 FEW
08:56 3.7 °F /  -15.7 °C 2.8 °F /  -16.2 °C 993.5in /  33639.9hPa SSE 2.3mph /  3.7km/h 33.3mph /  53.6km/h 94% 0.5in /  12.7mm WeatherDisplay:10.37 W/m2 FEW
09:01 3.7 °F /  -15.7 °C 2.8 °F /  -16.2 °C 993.5in /  33639.9hPa WSW 1.3mph /  2.1km/h 7.4mph /  11.9km/h 94% 0.5in /  12.7mm WeatherDisplay:10.37 W/m2 FEW
09:06 3.6 °F /  -15.8 °C 2.7 °F /  -16.3 °C 993.8in /  33650.1hPa WSW 2.6mph /  4.2km/h 11.1mph /  17.9km/h 94% 0.3in /  7.62mm WeatherDisplay:10.37 W/m2 FEW
09:11 3.6 °F /  -15.8 °C 2.7 °F /  -16.3 °C 993.8in /  33650.1hPa WSW 3.1mph /  5km/h 5.6mph /  9km/h 94% 0.3in /  7.62mm WeatherDisplay:10.37 W/m2 FEW
09:16 3.7 °F /  -15.7 °C 2.8 °F /  -16.2 °C 993.8in /  33650.1hPa NNE 3.4mph /  5.5km/h 14.8mph /  23.8km/h 94% 0.3in /  7.62mm WeatherDisplay:10.37 W/m2 FEW
09:21 3.7 °F /  -15.7 °C 2.8 °F /  -16.2 °C 993.8in /  33650.1hPa South 4.8mph /  7.7km/h 9.3mph /  15km/h 94% 0.3in /  7.62mm WeatherDisplay:10.37 W/m2 FEW
09:26 3.7 °F /  -15.7 °C 2.8 °F /  -16.2 °C 993.8in /  33650.1hPa SE 1.1mph /  1.8km/h 11.1mph /  17.9km/h 94% 0.3in /  7.62mm WeatherDisplay:10.37 W/m2 FEW
09:31 3.6 °F /  -15.8 °C 2.7 °F /  -16.3 °C 993.8in /  33650.1hPa SE 3.4mph /  5.5km/h 11.1mph /  17.9km/h 94% 0.0in /  0mm WeatherDisplay:10.37 W/m2 FEW
09:36 3.7 °F /  -15.7 °C 2.8 °F /  -16.2 °C 993.8in /  33650.1hPa South 9.5mph /  15.3km/h 14.8mph /  23.8km/h 94% 0.0in /  0mm WeatherDisplay:10.37 W/m2 FEW
09:41 3.7 °F /  -15.7 °C 2.8 °F /  -16.2 °C 993.8in /  33650.1hPa East 1.8mph /  2.9km/h 5.6mph /  9km/h 94% 0.0in /  0mm WeatherDisplay:10.37 W/m2 FEW
09:46 3.7 °F /  -15.7 °C 2.8 °F /  -16.2 °C 993.8in /  33650.1hPa SSW 5.3mph /  8.5km/h 18.5mph /  29.8km/h 94% 0.0in /  0mm WeatherDisplay:10.37 W/m2 FEW
09:51 3.8 °F /  -15.7 °C 2.9 °F /  -16.2 °C 993.8in /  33650.1hPa SE 2.3mph /  3.7km/h 4.8mph /  7.7km/h 94% 0.0in /  0mm WeatherDisplay:10.37 W/m2 FEW
09:56 3.8 °F /  -15.7 °C 2.9 °F /  -16.2 °C 994.1in /  33660.2hPa WSW 1.3mph /  2.1km/h 5.6mph /  9km/h 94% 0.0in /  0mm WeatherDisplay:10.37 W/m2 FEW
10:01 3.8 °F /  -15.7 °C 2.9 °F /  -16.2 °C 993.8in /  33650.1hPa SSE 5.3mph /  8.5km/h 25.9mph /  41.7km/h 94% 0.0in /  0mm WeatherDisplay:10.37 W/m2 FEW
10:06 3.8 °F /  -15.7 °C 2.9 °F /  -16.2 °C 993.8in /  33650.1hPa SW 5.3mph /  8.5km/h 18.5mph /  29.8km/h 94% 0.0in /  0mm WeatherDisplay:10.37 W/m2 FEW
10:11 3.8 °F /  -15.7 °C 2.9 °F /  -16.2 °C 993.8in /  33650.1hPa NNW 3.2mph /  5.1km/h 9.3mph /  15km/h 94% 0.0in /  0mm WeatherDisplay:10.37 W/m2 FEW
10:16 3.9 °F /  -15.6 °C 3.0 °F /  -16.1 °C 993.8in /  33650.1hPa WNW 1.4mph /  2.3km/h 5.6mph /  9km/h 94% 0.0in /  0mm WeatherDisplay:10.37 W/m2 FEW
10:21 3.8 °F /  -15.7 °C 2.9 °F /  -16.2 °C 993.8in /  33650.1hPa SW 1.1mph /  1.8km/h 5.6mph /  9km/h 94% 0.0in /  0mm WeatherDisplay:10.37 W/m2 FEW
10:26 3.9 °F /  -15.6 °C 3.1 °F /  -16.1 °C 994.1in /  33660.2hPa WNW 1.3mph /  2.1km/h 5.6mph /  9km/h 94% 0.0in /  0mm WeatherDisplay:10.37 W/m2 FEW
10:31 3.9 °F /  -15.6 °C 3.1 °F /  -16.1 °C 994.1in /  33660.2hPa West 2.9mph /  4.7km/h 9.7mph /  15.6km/h 94% 0.0in /  0mm WeatherDisplay:10.37 W/m2 FEW
10:36 4.0 °F /  -15.6 °C 3.1 °F /  -16.1 °C 994.1in /  33660.2hPa SSW 7.4mph /  11.9km/h 18.5mph /  29.8km/h 94% 0.0in /  0mm WeatherDisplay:10.37 W/m2 FEW
10:41 4.0 °F /  -15.6 °C 3.1 °F /  -16.1 °C 994.1in /  33660.2hPa NW 2.9mph /  4.7km/h 13.0mph /  20.9km/h 94% 0.0in /  0mm WeatherDisplay:10.37 W/m2 FEW
10:46 3.9 °F /  -15.6 °C 3.0 °F /  -16.1 °C 994.1in /  33660.2hPa WNW 0.3mph /  0.5km/h 3.7mph /  6km/h 94% 0.0in /  0mm WeatherDisplay:10.37 W/m2 FEW
10:51 3.9 °F /  -15.6 °C 3.0 °F /  -16.1 °C 994.1in /  33660.2hPa North 0.6mph /  1km/h 1.9mph /  3.1km/h 94% 0.0in /  0mm WeatherDisplay:10.37 W/m2 FEW
10:56 3.9 °F /  -15.6 °C 3.0 °F /  -16.1 °C 994.1in /  33660.2hPa Calm   7.4mph /  11.9km/h 94% 0.0in /  0mm WeatherDisplay:10.37 W/m2 FEW
11:01 3.9 °F /  -15.6 °C 3.0 °F /  -16.1 °C 994.1in /  33660.2hPa SSE 5.0mph /  8km/h 13.0mph /  20.9km/h 94% 0.0in /  0mm WeatherDisplay:10.37 W/m2 FEW
11:06 3.9 °F /  -15.6 °C 3.1 °F /  -16.1 °C 994.1in /  33660.2hPa SW 3.1mph /  5km/h 13.0mph /  20.9km/h 94% 0.0in /  0mm WeatherDisplay:10.37 W/m2 FEW
11:11 3.9 °F /  -15.6 °C 3.0 °F /  -16.1 °C 994.5in /  33673.8hPa ENE 2.7mph /  4.3km/h 8.0mph /  12.9km/h 94% 0.0in /  0mm WeatherDisplay:10.37 W/m2 FEW
11:16 3.9 °F /  -15.6 °C 3.1 °F /  -16.1 °C 994.5in /  33673.8hPa WNW 7.1mph /  11.4km/h 7.4mph /  11.9km/h 94% 0.0in /  0mm WeatherDisplay:10.37 W/m2 FEW
11:21 4.0 °F /  -15.6 °C 3.1 °F /  -16.1 °C 994.5in /  33673.8hPa SW 1.4mph /  2.3km/h 9.3mph /  15km/h 94% 0.0in /  0mm WeatherDisplay:10.37 W/m2 FEW
11:26 3.9 °F /  -15.6 °C 3.1 °F /  -16.1 °C 994.5in /  33673.8hPa SSW 4.5mph /  7.2km/h 9.3mph /  15km/h 94% 0.0in /  0mm WeatherDisplay:10.37 W/m2 FEW
11:31 3.9 °F /  -15.6 °C 3.1 °F /  -16.1 °C 994.5in /  33673.8hPa SSW 1.3mph /  2.1km/h 20.4mph /  32.8km/h 94% 0.0in /  0mm WeatherDisplay:10.37 W/m2 FEW
11:36 3.9 °F /  -15.6 °C 3.1 °F /  -16.1 °C 994.8in /  33683.9hPa South 3.9mph /  6.3km/h 14.8mph /  23.8km/h 94% 0.0in /  0mm WeatherDisplay:10.37 W/m2 FEW
11:41 3.9 °F /  -15.6 °C 3.0 °F /  -16.1 °C 994.8in /  33683.9hPa NW 5.8mph /  9.3km/h 13.0mph /  20.9km/h 94% 0.0in /  0mm WeatherDisplay:10.37 W/m2 FEW
11:46 3.9 °F /  -15.6 °C 3.0 °F /  -16.1 °C 994.8in /  33683.9hPa North 3.2mph /  5.1km/h 14.8mph /  23.8km/h 94% 0.0in /  0mm WeatherDisplay:10.37 W/m2 FEW
11:51 3.9 °F /  -15.6 °C 3.0 °F /  -16.1 °C 994.8in /  33683.9hPa SSE 1.0mph /  1.6km/h 8.0mph /  12.9km/h 94% 0.0in /  0mm WeatherDisplay:10.37 W/m2 FEW
11:56 3.9 °F /  -15.6 °C 3.1 °F /  -16.1 °C 994.8in /  33683.9hPa SSE 1.6mph /  2.6km/h 9.3mph /  15km/h 94% 0.0in /  0mm WeatherDisplay:10.37 W/m2 FEW
12:01 3.9 °F /  -15.6 °C 3.1 °F /  -16.1 °C 995.1in /  33694.1hPa SSW 7.1mph /  11.4km/h 22.2mph /  35.7km/h 94% 0.0in /  0mm WeatherDisplay:10.37 W/m2 FEW
12:06 3.9 °F /  -15.6 °C 3.0 °F /  -16.1 °C 995.1in /  33694.1hPa West 6.0mph /  9.7km/h 7.4mph /  11.9km/h 94% 0.0in /  0mm WeatherDisplay:10.37 W/m2 FEW
12:11 3.8 °F /  -15.7 °C 2.9 °F /  -16.2 °C 995.1in /  33694.1hPa SE 7.1mph /  11.4km/h 13.0mph /  20.9km/h 94% 0.0in /  0mm WeatherDisplay:10.37 W/m2 FEW
12:16 3.9 °F /  -15.6 °C 3.1 °F /  -16.1 °C 995.1in /  33694.1hPa West 5.0mph /  8km/h 14.8mph /  23.8km/h 94% 0.0in /  0mm WeatherDisplay:10.37 W/m2 FEW
12:21 4.0 °F /  -15.6 °C 3.1 °F /  -16.1 °C 995.1in /  33694.1hPa West 5.5mph /  8.9km/h 11.1mph /  17.9km/h 94% 0.0in /  0mm WeatherDisplay:10.37 W/m2 FEW
12:26 3.9 °F /  -15.6 °C 3.1 °F /  -16.1 °C 995.1in /  33694.1hPa NE 3.9mph /  6.3km/h 11.1mph /  17.9km/h 94% 0.0in /  0mm WeatherDisplay:10.37 W/m2 FEW
12:31 3.9 °F /  -15.6 °C 3.0 °F /  -16.1 °C 995.1in /  33694.1hPa West 3.5mph /  5.6km/h 14.8mph /  23.8km/h 94% 0.0in /  0mm WeatherDisplay:10.37 W/m2 FEW
12:36 3.8 °F /  -15.7 °C 2.9 °F /  -16.2 °C 995.1in /  33694.1hPa Calm   14.8mph /  23.8km/h 94% 0.0in /  0mm WeatherDisplay:10.37 W/m2 FEW
12:41 3.9 °F /  -15.6 °C 3.0 °F /  -16.1 °C 995.1in /  33694.1hPa SSW 6.1mph /  9.8km/h 14.8mph /  23.8km/h 94% 0.0in /  0mm WeatherDisplay:10.37 W/m2 FEW
12:46 3.9 °F /  -15.6 °C 2.9 °F /  -16.2 °C 995.1in /  33694.1hPa WSW 0.6mph /  1km/h 5.6mph /  9km/h 93% 0.0in /  0mm WeatherDisplay:10.37 W/m2 FEW
12:51 3.8 °F /  -15.7 °C 2.8 °F /  -16.2 °C 995.1in /  33694.1hPa West 4.0mph /  6.4km/h 9.7mph /  15.6km/h 93% 0.0in /  0mm WeatherDisplay:10.37 W/m2 FEW
12:56 3.8 °F /  -15.7 °C 2.8 °F /  -16.2 °C 995.1in /  33694.1hPa WNW 5.1mph /  8.2km/h 11.1mph /  17.9km/h 93% 0.0in /  0mm WeatherDisplay:10.37 W/m2 FEW
13:01 3.9 °F /  -15.6 °C 2.8 °F /  -16.2 °C 995.1in /  33694.1hPa South 6.4mph /  10.3km/h 16.7mph /  26.9km/h 93% 0.0in /  0mm WeatherDisplay:10.37 W/m2 FEW
13:06 3.9 °F /  -15.6 °C 2.8 °F /  -16.2 °C 995.1in /  33694.1hPa West 9.3mph /  15km/h 14.8mph /  23.8km/h 93% 0.0in /  0mm WeatherDisplay:10.37 W/m2 FEW
13:11 3.9 °F /  -15.6 °C 2.8 °F /  -16.2 °C 995.1in /  33694.1hPa North 3.2mph /  5.1km/h 5.6mph /  9km/h 93% 0.0in /  0mm WeatherDisplay:10.37 W/m2 FEW
13:16 3.9 °F /  -15.6 °C 2.8 °F /  -16.2 °C 995.1in /  33694.1hPa NNW 3.1mph /  5km/h 5.6mph /  9km/h 93% 0.0in /  0mm WeatherDisplay:10.37 W/m2 FEW
13:21 3.9 °F /  -15.6 °C 2.8 °F /  -16.2 °C 995.1in /  33694.1hPa ESE 1.8mph /  2.9km/h 5.6mph /  9km/h 93% 0.0in /  0mm WeatherDisplay:10.37 W/m2 FEW
13:26 3.8 °F /  -15.7 °C 2.9 °F /  -16.2 °C 995.1in /  33694.1hPa SSW 7.4mph /  11.9km/h 16.7mph /  26.9km/h 94% 0.0in /  0mm WeatherDisplay:10.37 W/m2 FEW
13:31 3.9 °F /  -15.6 °C 3.0 °F /  -16.1 °C 995.1in /  33694.1hPa NNE 3.9mph /  6.3km/h 13.0mph /  20.9km/h 94% 0.0in /  0mm WeatherDisplay:10.37 W/m2 FEW
13:36 3.8 °F /  -15.7 °C 2.9 °F /  -16.2 °C 995.1in /  33694.1hPa North 6.0mph /  9.7km/h 18.5mph /  29.8km/h 94% 0.0in /  0mm WeatherDisplay:10.37 W/m2 FEW
13:41 3.8 °F /  -15.7 °C 2.9 °F /  -16.2 °C 995.1in /  33694.1hPa SW 4.0mph /  6.4km/h 16.7mph /  26.9km/h 94% 0.0in /  0mm WeatherDisplay:10.37 W/m2 FEW
13:46 3.8 °F /  -15.7 °C 2.9 °F /  -16.2 °C 995.1in /  33694.1hPa SW 7.7mph /  12.4km/h 14.8mph /  23.8km/h 94% 0.0in /  0mm WeatherDisplay:10.37 W/m2 FEW
13:51 3.8 °F /  -15.7 °C 2.9 °F /  -16.2 °C 995.1in /  33694.1hPa SSE 1.4mph /  2.3km/h 5.6mph /  9km/h 94% 0.0in /  0mm WeatherDisplay:10.37 W/m2 FEW
13:56 3.9 °F /  -15.6 °C 3.1 °F /  -16.1 °C 995.1in /  33694.1hPa SSW 4.5mph /  7.2km/h 7.4mph /  11.9km/h 94% 0.0in /  0mm WeatherDisplay:10.37 W/m2 FEW
14:01 3.9 °F /  -15.6 °C 3.0 °F /  -16.1 °C 995.1in /  33694.1hPa SSE 4.5mph /  7.2km/h 13.0mph /  20.9km/h 94% 0.0in /  0mm WeatherDisplay:10.37 W/m2 FEW
14:06 3.9 °F /  -15.6 °C 3.0 °F /  -16.1 °C 995.1in /  33694.1hPa SE 1.6mph /  2.6km/h 5.6mph /  9km/h 94% 0.0in /  0mm WeatherDisplay:10.37 W/m2 FEW
14:11 3.9 °F /  -15.6 °C 3.0 °F /  -16.1 °C 995.1in /  33694.1hPa SSE 1.6mph /  2.6km/h 11.3mph /  18.2km/h 94% 0.0in /  0mm WeatherDisplay:10.37 W/m2 FEW
14:16 3.9 °F /  -15.6 °C 3.0 °F /  -16.1 °C 995.1in /  33694.1hPa South 7.9mph /  12.7km/h 16.7mph /  26.9km/h 94% 0.0in /  0mm WeatherDisplay:10.37 W/m2 FEW
14:21 3.8 °F /  -15.7 °C 2.9 °F /  -16.2 °C 995.1in /  33694.1hPa East 2.6mph /  4.2km/h 7.4mph /  11.9km/h 94% 0.0in /  0mm WeatherDisplay:10.37 W/m2 FEW
14:26 3.8 °F /  -15.7 °C 2.9 °F /  -16.2 °C 995.1in /  33694.1hPa SSW 6.8mph /  10.9km/h 13.0mph /  20.9km/h 94% 0.0in /  0mm WeatherDisplay:10.37 W/m2 FEW
14:31 3.8 °F /  -15.7 °C 2.9 °F /  -16.2 °C 995.5in /  33707.6hPa SSW 4.8mph /  7.7km/h 16.7mph /  26.9km/h 94% 0.0in /  0mm WeatherDisplay:10.37 W/m2 FEW
14:36 3.8 °F /  -15.7 °C 2.9 °F /  -16.2 °C 995.5in /  33707.6hPa West 5.6mph /  9km/h 16.7mph /  26.9km/h 94% 0.0in /  0mm WeatherDisplay:10.37 W/m2 FEW
14:41 3.8 °F /  -15.7 °C 2.9 °F /  -16.2 °C 995.5in /  33707.6hPa South 1.8mph /  2.9km/h 6.4mph /  10.3km/h 94% 0.0in /  0mm WeatherDisplay:10.37 W/m2 FEW
14:46 3.9 °F /  -15.6 °C 3.0 °F /  -16.1 °C 995.5in /  33707.6hPa West 5.0mph /  8km/h 20.4mph /  32.8km/h 94% 0.0in /  0mm WeatherDisplay:10.37 W/m2 FEW
14:51 3.9 °F /  -15.6 °C 3.0 °F /  -16.1 °C 995.8in /  33717.8hPa SW 2.3mph /  3.7km/h 5.6mph /  9km/h 94% 0.0in /  0mm WeatherDisplay:10.37 W/m2 FEW
14:56 3.9 °F /  -15.6 °C 3.0 °F /  -16.1 °C 995.8in /  33717.8hPa South 1.8mph /  2.9km/h 5.6mph /  9km/h 94% 0.0in /  0mm WeatherDisplay:10.37 W/m2 FEW
15:01 3.9 °F /  -15.6 °C 3.0 °F /  -16.1 °C 995.8in /  33717.8hPa West 2.7mph /  4.3km/h 9.3mph /  15km/h 94% 0.0in /  0mm WeatherDisplay:10.37 W/m2 FEW
15:06 3.9 °F /  -15.6 °C 2.8 °F /  -16.2 °C 995.8in /  33717.8hPa SE 4.2mph /  6.8km/h 9.3mph /  15km/h 93% 0.0in /  0mm WeatherDisplay:10.37 W/m2 FEW
15:11 3.8 °F /  -15.7 °C 2.8 °F /  -16.2 °C 995.8in /  33717.8hPa South 1.1mph /  1.8km/h   93% 0.0in /  0mm WeatherDisplay:10.37 W/m2 FEW
15:16 3.8 °F /  -15.7 °C 2.8 °F /  -16.2 °C 995.8in /  33717.8hPa SE 7.1mph /  11.4km/h 18.5mph /  29.8km/h 93% 0.0in /  0mm WeatherDisplay:10.37 W/m2 FEW
15:21 3.8 °F /  -15.7 °C 2.8 °F /  -16.2 °C 995.8in /  33717.8hPa SW 4.7mph /  7.6km/h 11.1mph /  17.9km/h 93% 0.0in /  0mm WeatherDisplay:10.37 W/m2 FEW
15:26 3.8 °F /  -15.7 °C 2.7 °F /  -16.3 °C 996.2in /  33731.3hPa South 3.7mph /  6km/h 14.8mph /  23.8km/h 93% 0.0in /  0mm WeatherDisplay:10.37 W/m2 FEW
15:31 3.8 °F /  -15.7 °C 2.7 °F /  -16.3 °C 996.2in /  33731.3hPa WSW 1.3mph /  2.1km/h 11.1mph /  17.9km/h 93% 0.0in /  0mm WeatherDisplay:10.37 W/m2 FEW
15:36 3.8 °F /  -15.7 °C 2.7 °F /  -16.3 °C 996.2in /  33731.3hPa North 0.8mph /  1.3km/h 7.4mph /  11.9km/h 93% 0.0in /  0mm WeatherDisplay:10.37 W/m2 FEW
15:41 3.8 °F /  -15.7 °C 2.7 °F /  -16.3 °C 996.2in /  33731.3hPa ESE 2.4mph /  3.9km/h 14.5mph /  23.3km/h 93% 0.0in /  0mm WeatherDisplay:10.37 W/m2 FEW
15:46 3.8 °F /  -15.7 °C 2.7 °F /  -16.3 °C 996.2in /  33731.3hPa SE 1.6mph /  2.6km/h 5.6mph /  9km/h 93% 0.0in /  0mm WeatherDisplay:10.37 W/m2 FEW
15:51 3.8 °F /  -15.7 °C 2.8 °F /  -16.2 °C 996.2in /  33731.3hPa ENE 0.8mph /  1.3km/h 6.4mph /  10.3km/h 93% 0.0in /  0mm WeatherDisplay:10.37 W/m2 FEW
15:56 3.8 °F /  -15.7 °C 2.8 °F /  -16.2 °C 996.2in /  33731.3hPa Calm   1.6mph /  2.6km/h 93% 0.0in /  0mm WeatherDisplay:10.37 W/m2 FEW
16:01 3.8 °F /  -15.7 °C 2.8 °F /  -16.2 °C 996.5in /  33741.5hPa SSW 1.3mph /  2.1km/h 9.7mph /  15.6km/h 93% 0.0in /  0mm WeatherDisplay:10.37 W/m2 FEW
16:06 3.8 °F /  -15.7 °C 2.8 °F /  -16.2 °C 996.5in /  33741.5hPa SSW 4.7mph /  7.6km/h 11.1mph /  17.9km/h 93% 0.0in /  0mm WeatherDisplay:10.37 W/m2 FEW
16:11 3.8 °F /  -15.7 °C 2.8 °F /  -16.2 °C 996.5in /  33741.5hPa South 0.6mph /  1km/h 3.2mph /  5.1km/h 93% 0.0in /  0mm WeatherDisplay:10.37 W/m2 FEW
16:16 3.7 °F /  -15.7 °C 2.7 °F /  -16.3 °C 996.8in /  33751.6hPa Calm   13.0mph /  20.9km/h 93% 0.0in /  0mm WeatherDisplay:10.37 W/m2 FEW
16:21 3.8 °F /  -15.7 °C 2.7 °F /  -16.3 °C 996.8in /  33751.6hPa WSW 3.5mph /  5.6km/h 13.0mph /  20.9km/h 93% 0.0in /  0mm WeatherDisplay:10.37 W/m2 FEW
16:26 3.7 °F /  -15.7 °C 2.7 °F /  -16.3 °C 996.8in /  33751.6hPa WSW 3.1mph /  5km/h 5.6mph /  9km/h 93% 0.0in /  0mm WeatherDisplay:10.37 W/m2 FEW
16:31 3.8 °F /  -15.7 °C 2.7 °F /  -16.3 °C 996.8in /  33751.6hPa WSW 1.4mph /  2.3km/h 5.6mph /  9km/h 93% 0.0in /  0mm WeatherDisplay:10.37 W/m2 FEW
16:36 3.8 °F /  -15.7 °C 2.7 °F /  -16.3 °C 996.8in /  33751.6hPa South 1.3mph /  2.1km/h 5.6mph /  9km/h 93% 0.0in /  0mm WeatherDisplay:10.37 W/m2 FEW
16:41 3.8 °F /  -15.7 °C 2.7 °F /  -16.3 °C 997.2in /  33765.2hPa West 0.3mph /  0.5km/h 5.6mph /  9km/h 93% 0.0in /  0mm WeatherDisplay:10.37 W/m2 FEW
16:46 3.8 °F /  -15.7 °C 2.7 °F /  -16.3 °C 997.2in /  33765.2hPa Calm   11.1mph /  17.9km/h 93% 0.0in /  0mm WeatherDisplay:10.37 W/m2 FEW
16:51 3.8 °F /  -15.7 °C 2.7 °F /  -16.3 °C 996.8in /  33751.6hPa SSW 3.4mph /  5.5km/h 5.6mph /  9km/h 93% 0.0in /  0mm WeatherDisplay:10.37 W/m2 FEW
16:56 3.7 °F /  -15.7 °C 2.7 °F /  -16.3 °C 997.2in /  33765.2hPa SSW 3.9mph /  6.3km/h 8.0mph /  12.9km/h 93% 0.0in /  0mm WeatherDisplay:10.37 W/m2 FEW
17:01 3.7 °F /  -15.7 °C 2.7 °F /  -16.3 °C 997.2in /  33765.2hPa SW 0.2mph /  0.3km/h 5.6mph /  9km/h 93% 0.0in /  0mm WeatherDisplay:10.37 W/m2 FEW
17:06 3.7 °F /  -15.7 °C 2.7 °F /  -16.3 °C 997.2in /  33765.2hPa SW 2.3mph /  3.7km/h 9.3mph /  15km/h 93% 0.0in /  0mm WeatherDisplay:10.37 W/m2 FEW
17:11 3.8 °F /  -15.7 °C 2.7 °F /  -16.3 °C 997.2in /  33765.2hPa SE 2.4mph /  3.9km/h 7.4mph /  11.9km/h 93% 0.0in /  0mm WeatherDisplay:10.37 W/m2 FEW
17:16 3.8 °F /  -15.7 °C 2.7 °F /  -16.3 °C 997.2in /  33765.2hPa WNW 0.8mph /  1.3km/h 3.7mph /  6km/h 93% 0.0in /  0mm WeatherDisplay:10.37 W/m2 FEW
17:21 3.8 °F /  -15.7 °C 2.7 °F /  -16.3 °C 997.5in /  33775.4hPa WNW 0.2mph /  0.3km/h 18.5mph /  29.8km/h 93% 0.0in /  0mm WeatherDisplay:10.37 W/m2 FEW
17:26 3.8 °F /  -15.7 °C 2.7 °F /  -16.3 °C 997.5in /  33775.4hPa SSW 0.5mph /  0.8km/h 7.4mph /  11.9km/h 93% 0.0in /  0mm WeatherDisplay:10.37 W/m2 FEW
17:31 3.8 °F /  -15.7 °C 2.7 °F /  -16.3 °C 997.5in /  33775.4hPa Calm   5.6mph /  9km/h 93% 0.0in /  0mm WeatherDisplay:10.37 W/m2 FEW
17:36 3.8 °F /  -15.7 °C 2.7 °F /  -16.3 °C 997.5in /  33775.4hPa ESE 1.4mph /  2.3km/h 5.6mph /  9km/h 93% 0.0in /  0mm WeatherDisplay:10.37 W/m2 FEW
17:41 3.8 °F /  -15.7 °C 2.8 °F /  -16.2 °C 997.9in /  33788.9hPa South 0.2mph /  0.3km/h 1.6mph /  2.6km/h 93% 0.0in /  0mm WeatherDisplay:10.37 W/m2 FEW
17:46 3.9 °F /  -15.6 °C 2.8 °F /  -16.2 °C 997.9in /  33788.9hPa West 3.1mph /  5km/h 9.3mph /  15km/h 93% 0.0in /  0mm WeatherDisplay:10.37 W/m2 FEW
17:51 3.9 °F /  -15.6 °C 2.9 °F /  -16.2 °C 997.9in /  33788.9hPa NNE 1.9mph /  3.1km/h 6.4mph /  10.3km/h 93% 0.0in /  0mm WeatherDisplay:10.37 W/m2 FEW
17:56 3.9 °F /  -15.6 °C 2.8 °F /  -16.2 °C 998.2in /  33799.1hPa Calm     93% 0.0in /  0mm WeatherDisplay:10.37 W/m2 FEW
18:01 3.8 °F /  -15.7 °C 2.8 °F /  -16.2 °C 997.9in /  33788.9hPa NNE 1.3mph /  2.1km/h 7.4mph /  11.9km/h 93% 0.0in /  0mm WeatherDisplay:10.37 W/m2 FEW
18:06 3.9 °F /  -15.6 °C 2.8 °F /  -16.2 °C 998.2in /  33799.1hPa East 1.4mph /  2.3km/h 13.0mph /  20.9km/h 93% 0.0in /  0mm WeatherDisplay:10.37 W/m2 FEW
18:11 3.9 °F /  -15.6 °C 2.8 °F /  -16.2 °C 998.2in /  33799.1hPa West 1.9mph /  3.1km/h 4.8mph /  7.7km/h 93% 0.0in /  0mm WeatherDisplay:10.37 W/m2 FEW
18:16 4.0 °F /  -15.6 °C 2.9 °F /  -16.2 °C 998.2in /  33799.1hPa SW 1.9mph /  3.1km/h 5.6mph /  9km/h 93% 0.0in /  0mm WeatherDisplay:10.37 W/m2 FEW
18:21 4.0 °F /  -15.6 °C 2.8 °F /  -16.2 °C 998.2in /  33799.1hPa Calm     92% 0.0in /  0mm WeatherDisplay:10.37 W/m2 FEW
18:26 3.9 °F /  -15.6 °C 2.8 °F /  -16.2 °C 998.2in /  33799.1hPa West 1.1mph /  1.8km/h 18.5mph /  29.8km/h 92% 0.0in /  0mm WeatherDisplay:10.37 W/m2 FEW
18:31 3.9 °F /  -15.6 °C 2.7 °F /  -16.3 °C 998.2in /  33799.1hPa NW 2.6mph /  4.2km/h 5.6mph /  9km/h 92% 0.0in /  0mm WeatherDisplay:10.37 W/m2 FEW
18:36 3.8 °F /  -15.7 °C 2.8 °F /  -16.2 °C 998.5in /  33809.2hPa SSE 0.3mph /  0.5km/h 5.6mph /  9km/h 93% 0.0in /  0mm WeatherDisplay:10.37 W/m2 FEW
18:41 3.8 °F /  -15.7 °C 2.8 °F /  -16.2 °C 998.5in /  33809.2hPa Calm   7.4mph /  11.9km/h 93% 0.0in /  0mm WeatherDisplay:10.37 W/m2 FEW
18:46 3.9 °F /  -15.6 °C 2.7 °F /  -16.3 °C 998.5in /  33809.2hPa West 1.3mph /  2.1km/h 5.6mph /  9km/h 92% 0.0in /  0mm WeatherDisplay:10.37 W/m2 FEW
18:51 3.9 °F /  -15.6 °C 2.9 °F /  -16.2 °C 998.9in /  33822.8hPa NW 3.5mph /  5.6km/h 5.6mph /  9km/h 93% 0.0in /  0mm WeatherDisplay:10.37 W/m2 FEW
18:56 3.9 °F /  -15.6 °C 2.9 °F /  -16.2 °C 998.9in /  33822.8hPa West 2.6mph /  4.2km/h 9.3mph /  15km/h 93% 0.0in /  0mm WeatherDisplay:10.37 W/m2 FEW
19:01 3.9 °F /  -15.6 °C 2.8 °F /  -16.2 °C 998.9in /  33822.8hPa SW 3.2mph /  5.1km/h 9.3mph /  15km/h 92% 0.0in /  0mm WeatherDisplay:10.37 W/m2 FEW
19:06 3.9 °F /  -15.6 °C 2.8 °F /  -16.2 °C 998.9in /  33822.8hPa SSW 1.1mph /  1.8km/h 13.0mph /  20.9km/h 92% 0.0in /  0mm WeatherDisplay:10.37 W/m2 FEW
19:11 3.9 °F /  -15.6 °C 2.7 °F /  -16.3 °C 998.9in /  33822.8hPa West 4.0mph /  6.4km/h 11.1mph /  17.9km/h 92% 0.0in /  0mm WeatherDisplay:10.37 W/m2 FEW
19:16 3.9 °F /  -15.6 °C 2.7 °F /  -16.3 °C 998.9in /  33822.8hPa South 1.4mph /  2.3km/h 14.8mph /  23.8km/h 92% 0.0in /  0mm WeatherDisplay:10.37 W/m2 FEW
19:21 3.8 °F /  -15.7 °C 2.7 °F /  -16.3 °C 998.9in /  33822.8hPa SE 3.1mph /  5km/h 7.4mph /  11.9km/h 92% 0.0in /  0mm WeatherDisplay:10.37 W/m2 FEW
19:26 3.8 °F /  -15.7 °C 2.8 °F /  -16.2 °C 999.2in /  33832.9hPa SW 2.1mph /  3.4km/h 12.9mph /  20.8km/h 93% 0.0in /  0mm WeatherDisplay:10.37 W/m2 FEW
19:31 3.9 °F /  -15.6 °C 2.7 °F /  -16.3 °C 999.2in /  33832.9hPa SW 6.3mph /  10.1km/h 9.3mph /  15km/h 92% 0.0in /  0mm WeatherDisplay:10.37 W/m2 FEW
19:36 3.9 °F /  -15.6 °C 2.8 °F /  -16.2 °C 999.2in /  33832.9hPa WSW 2.4mph /  3.9km/h 14.8mph /  23.8km/h 93% 0.0in /  0mm WeatherDisplay:10.37 W/m2 FEW
19:41 3.9 °F /  -15.6 °C 2.7 °F /  -16.3 °C 999.5in /  33843.1hPa WSW 2.3mph /  3.7km/h 5.6mph /  9km/h 92% 0.0in /  0mm WeatherDisplay:10.37 W/m2 FEW
19:46 3.9 °F /  -15.6 °C 2.7 °F /  -16.3 °C 999.5in /  33843.1hPa NW 1.6mph /  2.6km/h 7.4mph /  11.9km/h 92% 0.0in /  0mm WeatherDisplay:10.37 W/m2 FEW
19:51 3.9 °F /  -15.6 °C 2.7 °F /  -16.3 °C 999.5in /  33843.1hPa SSW 1.1mph /  1.8km/h 5.6mph /  9km/h 92% 0.0in /  0mm WeatherDisplay:10.37 W/m2 FEW
19:56 3.8 °F /  -15.7 °C 2.7 °F /  -16.3 °C 999.9in /  33856.6hPa NE 1.9mph /  3.1km/h 5.6mph /  9km/h 92% 0.0in /  0mm WeatherDisplay:10.37 W/m2 FEW
20:01 3.8 °F /  -15.7 °C 2.6 °F /  -16.3 °C 999.9in /  33856.6hPa ESE 3.1mph /  5km/h 14.5mph /  23.3km/h 92% 0.0in /  0mm WeatherDisplay:10.37 W/m2 FEW
20:06 3.7 °F /  -15.7 °C 2.6 °F /  -16.3 °C 999.9in /  33856.6hPa SW 1.8mph /  2.9km/h 3.7mph /  6km/h 92% 0.0in /  0mm WeatherDisplay:10.37 W/m2 FEW
20:11 3.7 °F /  -15.7 °C 2.6 °F /  -16.3 °C 999.9in /  33856.6hPa West 3.2mph /  5.1km/h 5.6mph /  9km/h 92% 0.0in /  0mm WeatherDisplay:10.37 W/m2 FEW
20:16 3.8 °F /  -15.7 °C 2.6 °F /  -16.3 °C 999.9in /  33856.6hPa Calm   5.6mph /  9km/h 92% 0.0in /  0mm WeatherDisplay:10.37 W/m2 FEW
20:21 3.7 °F /  -15.7 °C 2.6 °F /  -16.3 °C 1000.2in /  33866.8hPa Calm     92% 0.0in /  0mm WeatherDisplay:10.37 W/m2 FEW
20:26 3.7 °F /  -15.7 °C 2.5 °F /  -16.4 °C 1000.2in /  33866.8hPa SE 1.6mph /  2.6km/h 5.6mph /  9km/h 92% 0.0in /  0mm WeatherDisplay:10.37 W/m2 FEW
20:31 3.7 °F /  -15.7 °C 2.7 °F /  -16.3 °C 1000.2in /  33866.8hPa WSW 1.9mph /  3.1km/h 3.7mph /  6km/h 93% 0.0in /  0mm WeatherDisplay:10.37 W/m2 FEW
20:36 3.7 °F /  -15.7 °C 2.7 °F /  -16.3 °C 1000.2in /  33866.8hPa Calm   7.4mph /  11.9km/h 93% 0.0in /  0mm WeatherDisplay:10.37 W/m2 FEW
20:41 3.6 °F /  -15.8 °C 2.4 °F /  -16.4 °C 1000.2in /  33866.8hPa West 1.1mph /  1.8km/h 4.8mph /  7.7km/h 92% 0.0in /  0mm WeatherDisplay:10.37 W/m2 FEW
20:46 3.5 °F /  -15.8 °C 2.3 °F /  -16.5 °C 1000.2in /  33866.8hPa Calm     92% 0.0in /  0mm WeatherDisplay:10.37 W/m2 FEW
20:51 3.5 °F /  -15.8 °C 2.5 °F /  -16.4 °C 1000.6in /  33880.3hPa West 4.0mph /  6.4km/h 5.6mph /  9km/h 93% 0.0in /  0mm WeatherDisplay:10.37 W/m2 FEW
20:56 3.4 °F /  -15.9 °C 2.3 °F /  -16.5 °C 1000.6in /  33880.3hPa West 1.9mph /  3.1km/h 5.6mph /  9km/h 92% 0.0in /  0mm WeatherDisplay:10.37 W/m2 FEW
21:01 3.4 °F /  -15.9 °C 2.4 °F /  -16.4 °C 1000.6in /  33880.3hPa SSE 4.7mph /  7.6km/h 4.7mph /  7.6km/h 93% 0.0in /  0mm WeatherDisplay:10.37 W/m2 FEW
21:06 3.3 °F /  -15.9 °C 2.3 °F /  -16.5 °C 1000.9in /  33890.5hPa NW 0.2mph /  0.3km/h 7.4mph /  11.9km/h 93% 0.0in /  0mm WeatherDisplay:10.37 W/m2 FEW
21:11 3.3 °F /  -15.9 °C 2.3 °F /  -16.5 °C 1000.9in /  33890.5hPa NNW 0.8mph /  1.3km/h   93% 0.0in /  0mm WeatherDisplay:10.37 W/m2 FEW
21:16 3.3 °F /  -15.9 °C 2.3 °F /  -16.5 °C 1000.9in /  33890.5hPa Calm   5.6mph /  9km/h 93% 0.0in /  0mm WeatherDisplay:10.37 W/m2 FEW
21:21 3.2 °F /  -16 °C 2.2 °F /  -16.6 °C 1000.9in /  33890.5hPa East 0.6mph /  1km/h 5.6mph /  9km/h 93% 0.0in /  0mm WeatherDisplay:10.37 W/m2 FEW
21:26 3.2 °F /  -16 °C 2.2 °F /  -16.6 °C 1000.9in /  33890.5hPa SSE 1.4mph /  2.3km/h   93% 0.0in /  0mm WeatherDisplay:10.37 W/m2 FEW
21:31 3.1 °F /  -16.1 °C 2.1 °F /  -16.6 °C 1000.9in /  33890.5hPa SE 0.5mph /  0.8km/h 1.6mph /  2.6km/h 93% 0.0in /  0mm WeatherDisplay:10.37 W/m2 FEW
21:36 3.0 °F /  -16.1 °C 2.0 °F /  -16.7 °C 1000.9in /  33890.5hPa WNW 2.3mph /  3.7km/h 6.4mph /  10.3km/h 93% 0.0in /  0mm WeatherDisplay:10.37 W/m2 FEW
21:41 2.9 °F /  -16.2 °C 1.9 °F /  -16.7 °C 1001.2in /  33900.6hPa West 1.6mph /  2.6km/h 1.9mph /  3.1km/h 93% 0.0in /  0mm WeatherDisplay:10.37 W/m2 FEW
21:46 3.0 °F /  -16.1 °C 2.0 °F /  -16.7 °C 1001.2in /  33900.6hPa West 0.2mph /  0.3km/h 3.7mph /  6km/h 93% 0.0in /  0mm WeatherDisplay:10.37 W/m2 FEW
21:51 3.1 °F /  -16.1 °C 2.1 °F /  -16.6 °C 1001.2in /  33900.6hPa NW 1.0mph /  1.6km/h 5.6mph /  9km/h 93% 0.0in /  0mm WeatherDisplay:10.37 W/m2 FEW
21:56 3.1 °F /  -16.1 °C 2.1 °F /  -16.6 °C 1001.6in /  33914.2hPa Calm   7.4mph /  11.9km/h 93% 0.0in /  0mm WeatherDisplay:10.37 W/m2 FEW
22:01 3.1 °F /  -16.1 °C 2.1 °F /  -16.6 °C 1001.6in /  33914.2hPa Calm     93% 0.0in /  0mm WeatherDisplay:10.37 W/m2 FEW
22:06 3.1 °F /  -16.1 °C 2.1 °F /  -16.6 °C 1001.6in /  33914.2hPa WNW 1.6mph /  2.6km/h 5.6mph /  9km/h 93% 0.0in /  0mm WeatherDisplay:10.37 W/m2 FEW
22:11 3.1 °F /  -16.1 °C 2.1 °F /  -16.6 °C 1001.6in /  33914.2hPa West 0.5mph /  0.8km/h   93% 0.0in /  0mm WeatherDisplay:10.37 W/m2 FEW
22:16 3.1 °F /  -16.1 °C 2.1 °F /  -16.6 °C 1001.6in /  33914.2hPa NNE 1.0mph /  1.6km/h   93% 0.0in /  0mm WeatherDisplay:10.37 W/m2 FEW
22:21 3.0 °F /  -16.1 °C 2.0 °F /  -16.7 °C 1001.9in /  33924.3hPa Calm     93% 0.0in /  0mm WeatherDisplay:10.37 W/m2 FEW
22:26 2.9 °F /  -16.2 °C 1.9 °F /  -16.7 °C 1001.9in /  33924.3hPa Calm     93% 0.0in /  0mm WeatherDisplay:10.37 W/m2 FEW
22:31 2.9 °F /  -16.2 °C 1.9 °F /  -16.7 °C 1002.3in /  33937.9hPa SSE 0.2mph /  0.3km/h 1.9mph /  3.1km/h 93% 0.0in /  0mm WeatherDisplay:10.37 W/m2 FEW
22:36 2.8 °F /  -16.2 °C 1.8 °F /  -16.8 °C 1002.3in /  33937.9hPa Calm     93% 0.0in /  0mm WeatherDisplay:10.37 W/m2 FEW
22:41 2.6 °F /  -16.3 °C 1.6 °F /  -16.9 °C 1002.3in /  33937.9hPa Calm     93% 0.0in /  0mm WeatherDisplay:10.37 W/m2 FEW
22:46 2.4 °F /  -16.4 °C 1.4 °F /  -17 °C 1002.3in /  33937.9hPa South 1.0mph /  1.6km/h 9.3mph /  15km/h 93% 0.0in /  0mm WeatherDisplay:10.37 W/m2 FEW
22:51 2.3 °F /  -16.5 °C 1.3 °F /  -17.1 °C 1002.6in /  33948hPa Calm   1.9mph /  3.1km/h 93% 0.0in /  0mm WeatherDisplay:10.37 W/m2 FEW
22:56 2.3 °F /  -16.5 °C 1.3 °F /  -17.1 °C 1002.6in /  33948hPa SSE 1.3mph /  2.1km/h 7.4mph /  11.9km/h 93% 0.0in /  0mm WeatherDisplay:10.37 W/m2 FEW
23:01 2.4 °F /  -16.4 °C 1.4 °F /  -17 °C 1002.6in /  33948hPa NNW 1.0mph /  1.6km/h 5.6mph /  9km/h 93% 0.0in /  0mm WeatherDisplay:10.37 W/m2 FEW
23:06 2.4 °F /  -16.4 °C 1.4 °F /  -17 °C 1002.6in /  33948hPa NNE 0.2mph /  0.3km/h 5.6mph /  9km/h 93% 0.0in /  0mm WeatherDisplay:10.37 W/m2 FEW
23:11 2.4 °F /  -16.4 °C 1.4 °F /  -17 °C 1002.9in /  33958.2hPa Calm     93% 0.0in /  0mm WeatherDisplay:10.37 W/m2 FEW
23:16 2.3 °F /  -16.5 °C 1.3 °F /  -17.1 °C 1002.9in /  33958.2hPa Calm   5.6mph /  9km/h 93% 0.0in /  0mm WeatherDisplay:10.37 W/m2 FEW
23:21 2.3 °F /  -16.5 °C 1.4 °F /  -17 °C 1002.9in /  33958.2hPa Calm     94% 0.0in /  0mm WeatherDisplay:10.37 W/m2 FEW
23:26 2.2 °F /  -16.6 °C 1.3 °F /  -17.1 °C 1002.9in /  33958.2hPa Calm     94% 0.0in /  0mm WeatherDisplay:10.37 W/m2 FEW
23:31 2.2 °F /  -16.6 °C 1.3 °F /  -17.1 °C 1003.3in /  33971.7hPa Calm     94% 0.0in /  0mm WeatherDisplay:10.37 W/m2 FEW
23:36 2.1 °F /  -16.6 °C 1.1 °F /  -17.2 °C 1003.3in /  33971.7hPa Calm     93% 0.0in /  0mm WeatherDisplay:10.37 W/m2 FEW
23:41 2.1 °F /  -16.6 °C 1.2 °F /  -17.1 °C 1003.3in /  33971.7hPa SSE 1.8mph /  2.9km/h 1.9mph /  3.1km/h 94% 0.0in /  0mm WeatherDisplay:10.37 W/m2 FEW
23:46 2.1 °F /  -16.6 °C 1.2 °F /  -17.1 °C 1003.3in /  33971.7hPa NW 1.1mph /  1.8km/h 3.2mph /  5.1km/h 94% 0.0in /  0mm WeatherDisplay:10.37 W/m2 FEW
23:51 2.2 °F /  -16.6 °C 1.3 °F /  -17.1 °C 1003.3in /  33971.7hPa Calm     94% 0.0in /  0mm WeatherDisplay:10.37 W/m2 FEW
23:56 2.2 °F /  -16.6 °C 1.3 °F /  -17.1 °C 1003.6in /  33981.9hPa WNW 1.9mph /  3.1km/h 11.1mph /  17.9km/h 94% 0.0in /  0mm WeatherDisplay:10.37 W/m2 FEW
Tuulensuunkaari, Veikkola, Suomi
Compliments of Weather Underground - 2.75 mb